Terminal Aerodrome Forecast
Issued by NWS Brownsville, TX

Home | Current Version | Previous Version | Text Only | Print | Product List | Glossary On
Versions: 1 2 3 4 5 6 7 8 9 10 11 12 13 14 15 16 17 18 19 20 21 22
000
FTUS44 KBRO 200500
TAFMFE
TAF
KMFE 200521Z 2006/2106 09006KT P6SM SCT050 BKN100
     FM200900 VRB03KT P6SM SCT030 BKN050 OVC100
     FM201800 10010KT P6SM VCSH SCT025 BKN050
     FM210000 10006KT P6SM VCSH SCT050 BKN100=

USA.gov is the U.S. government's official web portal to all federal, state and local government web resources and services.